Rorichmoor — V2BV7 — position and weather

sailwx.info

Track history (hours):
 
Tides and Currents Weather Stations Pressure Air Temp Water Temp Dewpoint Dewpoint Depression Visibility Wind Speed Wind Dir Waves Ship Positions

Rorichmoor

Last reported at 2015-Mar-31 20:34 UTC. Time now 2015-Mar-31 20:48 UTC.
Position N 43°21' E 004°59'.

Length 80 m; draft 4.1 m.

Type: Cargo ship. MMSI: 304938000.

Date/timePositionNaut miles runAvg speedWind from/ knotsBaromVisibWave heightAir tempDewpointWater temp
2015-Mar-31 20:34N 43°21' E 004°59'7 7.1
2015-Mar-31 19:33N 43°14' E 005°01'6 6.3
2015-Mar-31 18:33N 43°09' E 004°56'9 8.4
2015-Mar-31 17:29N 43°05' E 004°45'9 8.8
2015-Mar-31 16:31N 43°00' E 004°35'10 8.5
2015-Mar-31 15:22N 42°56' E 004°23'8 8.9
2015-Mar-31 14:29N 42°53' E 004°13'9 8.6
2015-Mar-31 13:23N 42°48' E 004°02'7 8.3
2015-Mar-31 12:33N 42°44' E 003°55'8 7.7
2015-Mar-31 11:33N 42°38' E 003°49'8 7.5
2015-Mar-31 10:27N 42°31' E 003°42'6 7.1
2015-Mar-31 09:33N 42°26' E 003°37'12 8.4
2015-Mar-31 08:07N 42°17' E 003°26'7 9.6
2015-Mar-31 07:23N 42°10' E 003°23'12 9.9
2015-Mar-31 06:09N 41°58' E 003°20'19 9.1
2015-Mar-31 04:05N 41°41' E 003°10'45 9.2
2015-Mar-30 23:12N 41°04' E 002°36'6 8.8
2015-Mar-30 22:29N 40°59' E 002°31'8 8.9
2015-Mar-30 21:33N 40°52' E 002°25'1010.0
2015-Mar-30 20:33N 40°44' E 002°17'1010.2
2015-Mar-30 19:32N 40°35' E 002°09'10 9.9
2015-Mar-30 18:33N 40°28' E 002°02'9 9.1
2015-Mar-30 17:34N 40°20' E 001°56'9 8.8
2015-Mar-30 16:32N 40°13' E 001°49'9 9.4
2015-Mar-30 15:33N 40°05' E 001°42'10 9.6
2015-Mar-30 14:32N 39°57' E 001°35'100 9.6
2015-Mar-30 04:08N 38°35' E 000°22'7 9.0
2015-Mar-30 03:18N 38°29' E 000°17'9 9.2
2015-Mar-30 02:22N 38°22' E 000°10'8 9.0
2015-Mar-30 01:30N 38°15' E 000°05'10 9.0
2015-Mar-30 00:26N 38°07' W 000°02'8 9.2
2015-Mar-29 23:33N 38°00' W 000°07'19 9.1
2015-Mar-29 21:27N 37°45' W 000°21'9 9.0
2015-Mar-29 20:30N 37°37' W 000°27'8 8.7
2015-Mar-29 19:33N 37°31' W 000°33'9 8.7
2015-Mar-29 18:33N 37°25' W 000°42'11 8.8
2015-Mar-29 17:19N 37°18' W 000°52'229 9.2
2015-Mar-28 16:33N 35°58' W 005°19'  
Track history (hours):
 
Tides and Currents Weather Stations Pressure Air Temp Water Temp Dewpoint Dewpoint Depression Visibility Wind Speed Wind Dir Waves Ship Positions

Rorichmoor

Last reported at 2015-Mar-31 20:34 UTC. Time now 2015-Mar-31 20:48 UTC.
Position N 43°21' E 004°59'.

Length 80 m; draft 4.1 m.

Type: Cargo ship. MMSI: 304938000.

Date/timePositionNaut miles runAvg speedWind from/ knotsBaromVisibWave heightAir tempDewpointWater temp
2015-Mar-31 20:34N 43°21' E 004°59'7 7.1
2015-Mar-31 19:33N 43°14' E 005°01'6 6.3
2015-Mar-31 18:33N 43°09' E 004°56'9 8.4
2015-Mar-31 17:29N 43°05' E 004°45'9 8.8
2015-Mar-31 16:31N 43°00' E 004°35'10 8.5
2015-Mar-31 15:22N 42°56' E 004°23'8 8.9
2015-Mar-31 14:29N 42°53' E 004°13'9 8.6
2015-Mar-31 13:23N 42°48' E 004°02'7 8.3
2015-Mar-31 12:33N 42°44' E 003°55'8 7.7
2015-Mar-31 11:33N 42°38' E 003°49'8 7.5
2015-Mar-31 10:27N 42°31' E 003°42'6 7.1
2015-Mar-31 09:33N 42°26' E 003°37'12 8.4
2015-Mar-31 08:07N 42°17' E 003°26'7 9.6
2015-Mar-31 07:23N 42°10' E 003°23'12 9.9
2015-Mar-31 06:09N 41°58' E 003°20'19 9.1
2015-Mar-31 04:05N 41°41' E 003°10'45 9.2
2015-Mar-30 23:12N 41°04' E 002°36'6 8.8
2015-Mar-30 22:29N 40°59' E 002°31'8 8.9
2015-Mar-30 21:33N 40°52' E 002°25'1010.0
2015-Mar-30 20:33N 40°44' E 002°17'1010.2
2015-Mar-30 19:32N 40°35' E 002°09'10 9.9
2015-Mar-30 18:33N 40°28' E 002°02'9 9.1
2015-Mar-30 17:34N 40°20' E 001°56'9 8.8
2015-Mar-30 16:32N 40°13' E 001°49'9 9.4
2015-Mar-30 15:33N 40°05' E 001°42'10 9.6
2015-Mar-30 14:32N 39°57' E 001°35'100 9.6
2015-Mar-30 04:08N 38°35' E 000°22'7 9.0
2015-Mar-30 03:18N 38°29' E 000°17'9 9.2
2015-Mar-30 02:22N 38°22' E 000°10'8 9.0
2015-Mar-30 01:30N 38°15' E 000°05'10 9.0
2015-Mar-30 00:26N 38°07' W 000°02'8 9.2
2015-Mar-29 23:33N 38°00' W 000°07'19 9.1
2015-Mar-29 21:27N 37°45' W 000°21'9 9.0
2015-Mar-29 20:30N 37°37' W 000°27'8 8.7
2015-Mar-29 19:33N 37°31' W 000°33'9 8.7
2015-Mar-29 18:33N 37°25' W 000°42'11 8.8
2015-Mar-29 17:19N 37°18' W 000°52'229 9.2
2015-Mar-28 16:33N 35°58' W 005°19'  

Dump ship's entire track history